createdAt,value
2018-07-30T00:04:00.873Z,0.00
2018-07-30T00:08:04.186Z,0.00
2018-07-30T00:12:07.702Z,0.00
2018-07-30T00:16:10.942Z,0.00
2018-07-30T00:20:14.161Z,0.00
2018-07-30T00:24:17.389Z,0.00
2018-07-30T00:28:20.619Z,0.10
2018-07-30T00:32:23.869Z,0.00
2018-07-30T00:36:27.083Z,0.10
2018-07-30T00:40:30.298Z,0.00
2018-07-30T00:44:33.570Z,0.00
2018-07-30T00:48:36.754Z,0.00
2018-07-30T00:52:40.076Z,0.00
2018-07-30T00:56:43.323Z,0.00
2018-07-30T01:00:46.540Z,0.00
2018-07-30T01:04:49.764Z,0.10
2018-07-30T01:08:52.993Z,0.00
2018-07-30T01:12:56.232Z,0.00
2018-07-30T01:16:59.485Z,0.08
2018-07-30T01:21:02.741Z,0.10
2018-07-30T01:25:06.063Z,0.00
2018-07-30T01:29:09.582Z,0.00
2018-07-30T01:33:12.830Z,0.00
2018-07-30T01:37:16.120Z,0.00
2018-07-30T01:41:19.564Z,0.10
2018-07-30T01:45:22.779Z,0.00
2018-07-30T01:49:26.030Z,0.00
2018-07-30T01:53:30.001Z,0.00
2018-07-30T01:57:33.257Z,0.00
2018-07-30T02:01:36.489Z,0.40
2018-07-30T02:05:39.717Z,0.00
2018-07-30T02:09:43.373Z,0.10
2018-07-30T02:13:46.606Z,0.00
2018-07-30T02:17:49.850Z,0.00
2018-07-30T02:21:53.101Z,0.00
2018-07-30T02:25:56.329Z,0.00
2018-07-30T02:29:59.542Z,0.00
2018-07-30T02:34:03.085Z,0.07
2018-07-30T02:38:06.362Z,0.00
2018-07-30T02:42:09.612Z,0.00
2018-07-30T02:46:12.846Z,0.20
2018-07-30T02:50:16.061Z,0.47
2018-07-30T02:54:19.300Z,0.00
2018-07-30T02:58:22.538Z,0.00
2018-07-30T03:02:25.798Z,0.00
2018-07-30T03:06:29.188Z,0.00
2018-07-30T03:10:32.436Z,0.00
2018-07-30T03:14:35.717Z,0.00
2018-07-30T03:18:38.952Z,0.00
2018-07-30T03:22:42.172Z,0.00
2018-07-30T03:26:45.504Z,0.00
2018-07-30T03:30:48.912Z,0.00
2018-07-30T03:34:52.139Z,0.00
2018-07-30T03:38:55.361Z,0.00
2018-07-30T03:42:58.624Z,0.00
2018-07-30T03:47:01.880Z,0.00
2018-07-30T03:51:05.134Z,0.00
2018-07-30T03:55:08.366Z,0.40
2018-07-30T03:59:12.552Z,0.00
2018-07-30T04:03:15.779Z,0.00
2018-07-30T04:07:19.060Z,0.10
2018-07-30T04:11:22.313Z,0.00
2018-07-30T04:15:25.544Z,0.00
2018-07-30T04:19:28.758Z,1.13
2018-07-30T04:23:32.338Z,0.00
2018-07-30T04:27:35.564Z,0.00
2018-07-30T04:31:38.572Z,0.00
2018-07-30T04:35:41.800Z,0.00
2018-07-30T04:39:45.020Z,0.47
2018-07-30T04:43:48.335Z,0.00
2018-07-30T04:47:52.041Z,0.00
2018-07-30T04:51:56.045Z,0.00
2018-07-30T04:55:59.315Z,0.00
2018-07-30T05:00:02.523Z,0.00
2018-07-30T05:04:05.823Z,0.00
2018-07-30T05:08:09.061Z,0.00
2018-07-30T05:12:12.277Z,0.00
2018-07-30T05:16:15.533Z,0.00
2018-07-30T05:20:18.801Z,0.00
2018-07-30T05:24:22.064Z,0.00
2018-07-30T05:28:25.299Z,0.00
2018-07-30T05:32:28.542Z,0.00
2018-07-30T05:36:31.788Z,0.00
2018-07-30T05:40:35.025Z,0.30
2018-07-30T05:44:38.276Z,0.00
2018-07-30T05:48:41.542Z,0.03
2018-07-30T05:52:44.856Z,0.00
2018-07-30T05:56:48.396Z,0.00
2018-07-30T06:00:51.623Z,0.00
2018-07-30T06:04:54.863Z,0.10
2018-07-30T06:08:58.167Z,0.55
2018-07-30T06:13:01.410Z,0.37
2018-07-30T06:17:04.636Z,0.00
2018-07-30T06:21:07.894Z,0.10
2018-07-30T06:25:11.151Z,0.00
2018-07-30T06:29:14.413Z,0.00
2018-07-30T06:33:17.651Z,0.95
2018-07-30T06:37:20.868Z,0.00
2018-07-30T06:41:24.169Z,0.85
2018-07-30T06:45:27.412Z,0.00
2018-07-30T06:49:30.665Z,0.00
2018-07-30T06:53:33.902Z,0.00
2018-07-30T06:57:37.258Z,0.00
2018-07-30T07:01:40.494Z,0.00
2018-07-30T07:05:43.741Z,0.00
2018-07-30T07:09:47.282Z,0.42
2018-07-30T07:13:50.666Z,0.15
2018-07-30T07:17:54.411Z,0.10
2018-07-30T07:21:57.691Z,0.00
2018-07-30T07:26:00.898Z,0.80
2018-07-30T07:30:05.637Z,0.00
2018-07-30T07:34:09.245Z,0.10
2018-07-30T07:38:12.485Z,0.00
2018-07-30T07:42:15.750Z,0.20
2018-07-30T07:46:18.972Z,0.40
2018-07-30T07:50:22.389Z,0.85
2018-07-30T07:54:25.474Z,2.65
2018-07-30T07:58:28.750Z,2.90
2018-07-30T08:02:31.988Z,3.05
2018-07-30T08:06:35.213Z,3.00
2018-07-30T08:10:38.477Z,2.52
2018-07-30T08:14:41.713Z,3.20
2018-07-30T08:18:44.946Z,2.90
2018-07-30T08:22:48.277Z,2.67
2018-07-30T08:26:51.828Z,2.80
2018-07-30T08:30:55.509Z,3.22
2018-07-30T08:34:58.748Z,2.90
2018-07-30T08:39:01.977Z,2.62
2018-07-30T08:43:05.224Z,2.70
2018-07-30T08:47:08.562Z,3.00
2018-07-30T08:51:12.116Z,2.77
2018-07-30T08:55:15.345Z,2.83
2018-07-30T08:59:18.888Z,2.60
2018-07-30T09:03:22.157Z,2.72
2018-07-30T09:07:25.414Z,2.80
2018-07-30T09:11:28.664Z,2.83
2018-07-30T09:15:31.948Z,3.17
2018-07-30T09:19:35.476Z,2.83
2018-07-30T09:23:38.723Z,3.10
2018-07-30T09:27:41.960Z,2.95
2018-07-30T09:31:45.196Z,2.87
2018-07-30T09:35:48.796Z,2.95
2018-07-30T09:39:52.224Z,2.30
2018-07-30T09:43:55.468Z,3.00
2018-07-30T09:47:59.683Z,2.80
2018-07-30T09:52:02.899Z,2.65
2018-07-30T09:56:06.258Z,2.45
2018-07-30T10:00:09.968Z,2.60
2018-07-30T10:04:13.209Z,2.77
2018-07-30T10:08:16.812Z,3.10
2018-07-30T10:12:20.053Z,3.20
2018-07-30T10:16:23.280Z,2.95
2018-07-30T10:20:26.535Z,3.15
2018-07-30T10:24:29.761Z,2.65
2018-07-30T10:28:32.711Z,2.90
2018-07-30T10:32:36.884Z,2.70
2018-07-30T10:36:40.105Z,3.10
2018-07-30T10:40:43.394Z,2.60
2018-07-30T10:44:46.621Z,2.80
2018-07-30T10:48:50.700Z,2.87
2018-07-30T10:52:53.920Z,2.50
2018-07-30T10:56:57.164Z,2.77
2018-07-30T11:01:00.418Z,3.10
2018-07-30T11:05:04.353Z,2.75
2018-07-30T11:09:09.021Z,2.70
2018-07-30T11:13:12.280Z,2.98
2018-07-30T11:17:15.510Z,2.80
2018-07-30T11:21:18.754Z,2.80
2018-07-30T11:25:22.037Z,3.15
2018-07-30T11:29:25.209Z,3.10
2018-07-30T11:33:28.544Z,3.05
2018-07-30T11:37:32.334Z,2.72
2018-07-30T11:41:35.575Z,2.90
2018-07-30T11:45:38.811Z,3.10
2018-07-30T11:49:42.070Z,2.80
2018-07-30T11:53:45.316Z,3.12
2018-07-30T11:57:48.860Z,3.22
2018-07-30T12:01:52.269Z,3.40
2018-07-30T12:05:55.500Z,3.30
2018-07-30T12:09:58.768Z,3.30
2018-07-30T12:14:02.038Z,3.17
2018-07-30T12:18:05.629Z,3.10
2018-07-30T12:22:08.865Z,2.85
2018-07-30T12:26:12.103Z,2.98
2018-07-30T12:30:15.547Z,3.30
2018-07-30T12:34:18.701Z,3.40
2018-07-30T12:38:22.347Z,3.45
2018-07-30T12:42:25.598Z,3.67
2018-07-30T12:46:29.454Z,2.92
2018-07-30T12:50:33.338Z,3.45
2018-07-30T12:54:36.546Z,3.52
2018-07-30T12:58:40.607Z,3.58
2018-07-30T13:02:43.856Z,3.67
2018-07-30T13:06:47.090Z,3.40
2018-07-30T13:10:50.647Z,3.60
2018-07-30T13:14:53.868Z,3.50
2018-07-30T13:18:57.088Z,3.80
2018-07-30T13:23:00.632Z,3.37
2018-07-30T13:27:03.949Z,3.55
2018-07-30T13:31:07.265Z,3.35
2018-07-30T13:35:10.761Z,3.37
2018-07-30T13:39:13.992Z,2.92
2018-07-30T13:43:18.048Z,3.02
2018-07-30T13:47:21.321Z,3.50
2018-07-30T13:51:24.948Z,2.90
2018-07-30T13:55:28.528Z,2.98
2018-07-30T13:59:31.790Z,3.12
2018-07-30T14:08:01.205Z,3.08
2018-07-30T14:12:04.445Z,3.37
2018-07-30T14:16:07.712Z,2.87
2018-07-30T14:20:11.153Z,3.30
2018-07-30T14:24:14.388Z,3.10
2018-07-30T14:28:18.490Z,3.00
2018-07-30T14:32:21.704Z,3.10
2018-07-30T14:36:24.949Z,2.83
2018-07-30T14:40:28.228Z,2.87
2018-07-30T14:44:31.515Z,3.92
2018-07-30T14:48:34.753Z,3.10
2018-07-30T14:52:38.008Z,3.00
2018-07-30T14:56:41.301Z,3.30
2018-07-30T15:00:44.572Z,3.30
2018-07-30T15:04:47.804Z,3.30
2018-07-30T15:08:51.102Z,3.17
2018-07-30T15:12:54.335Z,2.80
2018-07-30T15:16:57.584Z,3.02
2018-07-30T15:21:00.876Z,3.15
2018-07-30T15:25:04.339Z,3.35
2018-07-30T15:29:07.592Z,2.77
2018-07-30T15:33:10.874Z,2.87
2018-07-30T15:37:14.174Z,3.30
2018-07-30T15:41:17.669Z,3.50
2018-07-30T15:45:22.702Z,3.17
2018-07-30T15:49:25.981Z,3.22
2018-07-30T15:53:29.208Z,2.75
2018-07-30T15:57:32.520Z,2.92
2018-07-30T16:01:35.849Z,2.30
2018-07-30T16:05:39.151Z,2.70
2018-07-30T16:09:42.367Z,2.33
2018-07-30T16:13:45.582Z,2.58
2018-07-30T16:17:48.827Z,2.30
2018-07-30T16:21:52.085Z,2.75
2018-07-30T16:25:55.050Z,2.60
2018-07-30T16:29:58.395Z,2.60
2018-07-30T16:34:01.653Z,2.60
2018-07-30T16:38:05.002Z,2.90
2018-07-30T16:42:08.242Z,2.75
2018-07-30T16:46:11.475Z,2.55
2018-07-30T16:50:14.729Z,2.70
2018-07-30T16:54:17.950Z,2.75
2018-07-30T16:58:21.188Z,2.58
2018-07-30T17:02:24.407Z,2.42
2018-07-30T17:06:27.640Z,2.70
2018-07-30T17:10:30.909Z,2.50
2018-07-30T17:14:34.173Z,2.50
2018-07-30T17:18:37.573Z,2.30
2018-07-30T17:22:41.648Z,2.75
2018-07-30T17:26:44.936Z,2.60
2018-07-30T17:30:48.190Z,2.62
2018-07-30T17:34:51.504Z,2.52
2018-07-30T17:38:54.820Z,2.40
2018-07-30T17:42:58.010Z,2.58
2018-07-30T17:47:01.246Z,2.58
2018-07-30T17:51:04.549Z,2.40
2018-07-30T17:55:08.100Z,2.65
2018-07-30T17:59:11.436Z,2.65
2018-07-30T18:03:14.676Z,2.90
2018-07-30T18:07:17.928Z,2.70
2018-07-30T18:11:21.156Z,2.45
2018-07-30T18:15:24.475Z,2.55
2018-07-30T18:19:27.702Z,2.90
2018-07-30T18:23:30.993Z,2.62
2018-07-30T18:27:34.220Z,2.50
2018-07-30T18:31:37.506Z,3.00
2018-07-30T18:35:40.744Z,13.00
2018-07-30T18:39:44.056Z,3.35
2018-07-30T18:43:49.340Z,3.20
2018-07-30T18:47:52.669Z,2.87
2018-07-30T18:51:56.389Z,3.00
2018-07-30T18:55:59.934Z,3.27
2018-07-30T19:00:03.645Z,3.37
2018-07-30T19:04:06.900Z,3.10
2018-07-30T19:08:10.197Z,3.47
2018-07-30T19:12:13.477Z,3.08
2018-07-30T19:16:17.145Z,3.87
2018-07-30T19:20:20.403Z,4.17
2018-07-30T19:24:27.028Z,4.30
2018-07-30T19:28:30.573Z,9.03
2018-07-30T19:32:33.826Z,8.10
2018-07-30T19:36:37.364Z,3.60
2018-07-30T19:40:41.309Z,3.50
2018-07-30T19:44:44.938Z,3.15
2018-07-30T19:48:48.508Z,3.55
2018-07-30T19:52:51.907Z,3.22
2018-07-30T19:56:56.565Z,3.45
2018-07-30T20:01:00.078Z,3.52
2018-07-30T20:05:03.372Z,4.20
2018-07-30T20:09:08.763Z,3.83
2018-07-30T20:13:11.781Z,4.30
2018-07-30T20:17:15.239Z,3.75
2018-07-30T20:21:18.630Z,4.55
2018-07-30T20:25:21.970Z,4.45
2018-07-30T20:29:25.245Z,4.25
2018-07-30T20:33:29.724Z,4.00
2018-07-30T20:37:33.152Z,3.75
2018-07-30T20:41:36.699Z,4.00
2018-07-30T20:45:40.065Z,3.75
2018-07-30T20:49:43.605Z,3.45
2018-07-30T20:53:47.184Z,3.60
2018-07-30T20:57:50.859Z,3.37
2018-07-30T21:01:54.141Z,3.10
2018-07-30T21:05:57.453Z,3.87
2018-07-30T21:10:01.385Z,3.27
2018-07-30T21:14:04.825Z,3.40
2018-07-30T21:18:08.182Z,3.10
2018-07-30T21:22:11.476Z,3.98
2018-07-30T21:26:14.717Z,3.10
2018-07-30T21:30:19.936Z,3.40
2018-07-30T21:34:23.453Z,3.12
2018-07-30T21:38:26.884Z,0.00
2018-07-30T21:42:30.161Z,0.00
2018-07-30T21:46:33.706Z,0.10
2018-07-30T21:50:36.951Z,0.00
2018-07-30T21:54:40.329Z,0.00
2018-07-30T21:58:43.672Z,0.00
2018-07-30T22:02:47.232Z,0.00
2018-07-30T22:06:50.584Z,0.00
2018-07-30T22:10:54.084Z,0.10
2018-07-30T22:14:57.329Z,0.00
2018-07-30T22:19:00.602Z,0.00
2018-07-30T22:23:03.838Z,0.03
2018-07-30T22:27:07.124Z,0.35
2018-07-30T22:31:10.363Z,0.90
2018-07-30T22:35:13.609Z,0.50
2018-07-30T22:39:16.910Z,0.55
2018-07-30T22:43:20.153Z,0.00
2018-07-30T22:47:23.372Z,0.00
2018-07-30T22:51:26.652Z,0.00
2018-07-30T22:55:29.913Z,0.00
2018-07-30T22:59:33.249Z,0.00
2018-07-30T23:03:36.503Z,0.00
2018-07-30T23:07:39.754Z,0.00
2018-07-30T23:11:42.982Z,0.25
2018-07-30T23:15:46.244Z,0.00
2018-07-30T23:19:49.481Z,0.00
2018-07-30T23:23:52.716Z,0.15
2018-07-30T23:27:55.957Z,0.00
2018-07-30T23:31:59.451Z,0.30
2018-07-30T23:36:02.680Z,0.00
2018-07-30T23:40:06.938Z,0.00
2018-07-30T23:44:10.224Z,0.00
2018-07-30T23:48:13.445Z,0.00
2018-07-30T23:52:16.679Z,0.00
2018-07-30T23:56:19.925Z,0.00
